Main page
METAR-TAF:

METAR-TAF

Airports :

Karachi, Pakistan

Jinnah International Airport

latitude: 24-54N, longitude: 067-08E, elevation: 21 m

Current weather observation

The report was made 1 hour and 3 minutes ago, at 13:25 UTC
Wind 9 kt from the South/Southwest
Temperature 23°C
Humidity 41%
Pressure 1012 hPa
Visibility: 6000 m

METAR: OPKC 211325Z 21009KT 6000 NSC 23/09 Q1012 NOSIG

Time: 19:28 (14:28 UTC)

Forecast

The report was made 4 hours and 58 minutes ago, at 09:30 UTC
Forecast valid from 21 at 12 UTC to 22 at 18 UTC
Wind 10 kt from the West with gusts up to 20 kt
Visibility: 5000 m
haze
Temporary
from 22 at 00 UTC to 22 at 04 UTC
Wind 5 kt from the Northwest
Visibility: 2000 m
smoke
Becoming
from 22 at 14 UTC to 22 at 16 UTC
Wind 8 kt from the West/Southwest with gusts up to 18 kt
Visibility: 4000 m
haze

TAF: OPKC 210930Z 2112/2218 27010G20KT 5000 HZ NSC TEMPO 2200/2204 31005KT 2000 FU NSC BECMG 2214/2216 24008G18KT 4000 HZ NSC

Weather observations and forecasts of more than 4000 airports (METAR and TAF reports).

The available stations are represented by yellow and red dots on the map.

Hover mouse over dot to see the name of the station.

Then click to see weather observations and forecasts.

To change the map : click on the green buttons with a black cross to zoom in, on the green button with a dash to zoom out, or on the green arrows for adjacent maps.


METAR-TAF: